Accueil
METAR-TAF:

METAR-TAF

Aéroports :

Aéroport de Calais

Calais, France

latitude: 50-57-39N, longitude: 001-57-05E, altitude: 4 m

Observation

Le bulletin a été fait il y a 6 heures et 44 minutes, à 20:00 UTC
Vent 5 kt de ouest/sud-ouest
Température 17°C
Humidité 82%
Pression 1013 hPa
Visibilité 10 km ou plus

METAR: LFAC 012000Z AUTO 24005KT 9999 BKN012/// OVC080/// ///CB 17/14 Q1013

Heure: 04:44 (02:44 UTC)


TAF: absent

Observations et prévisions météorologiques de plus de 4000 aéroports (messages METAR et TAF).

Les stations disponibles sont représentées par des disques jaunes et rouges sur la carte.

Passer la souris dessus pour voir le nom de la station.

Cliquer dessus pour voir les observations et prévisions météorologiques.

Pour changer de carte: cliquez sur les boutons verts avec une croix noire pour zoomer, sur le bouton vert avec un tiret pour effectuer un zoom arrière, ou sur les flèches vertes pour les cartes adjacentes.


METAR-TAF: